createdAt,value
2022-07-28T00:00:11.493Z,100510.00
2022-07-28T00:02:38.618Z,100496.00
2022-07-28T00:05:06.662Z,100505.00
2022-07-28T00:07:34.116Z,100506.00
2022-07-28T00:10:01.224Z,100508.00
2022-07-28T00:12:28.688Z,100510.00
2022-07-28T00:14:55.839Z,100507.00
2022-07-28T00:17:22.978Z,100518.00
2022-07-28T00:19:50.840Z,100509.00
2022-07-28T00:22:18.544Z,100505.00
2022-07-28T00:24:45.704Z,100510.00
2022-07-28T00:27:19.041Z,100509.00
2022-07-28T00:29:50.241Z,100489.00
2022-07-28T00:32:19.336Z,100502.00
2022-07-28T00:34:47.050Z,100496.00
2022-07-28T00:37:14.846Z,100498.00
2022-07-28T00:39:43.134Z,100500.00
2022-07-28T00:42:10.286Z,100498.00
2022-07-28T00:44:41.693Z,100494.00
2022-07-28T00:47:08.865Z,100477.00
2022-07-28T00:49:35.922Z,100496.00
2022-07-28T00:52:04.630Z,100496.00
2022-07-28T00:54:33.327Z,100491.00
2022-07-28T00:57:00.424Z,100486.00
2022-07-28T00:59:27.509Z,100498.00
2022-07-28T01:01:55.945Z,100487.00
2022-07-28T01:04:24.662Z,100460.00
2022-07-28T01:07:20.315Z,100477.00
2022-07-28T01:10:21.899Z,100485.00
2022-07-28T01:13:30.065Z,100488.00
2022-07-28T01:16:05.660Z,100482.00
2022-07-28T01:18:47.555Z,100476.00
2022-07-28T01:21:25.697Z,100457.00
2022-07-28T01:24:48.630Z,100465.00
2022-07-28T01:27:58.543Z,100474.00
2022-07-28T01:30:25.487Z,100475.00
2022-07-28T01:33:18.650Z,100464.00
2022-07-28T01:35:54.720Z,100470.00
2022-07-28T01:38:24.936Z,100470.00
2022-07-28T01:40:55.462Z,100448.00
2022-07-28T01:43:26.366Z,100467.00
2022-07-28T01:45:56.926Z,100466.00
2022-07-28T01:48:26.247Z,100451.00
2022-07-28T01:50:56.431Z,100472.00
2022-07-28T01:53:26.167Z,100454.00
2022-07-28T01:55:54.835Z,100448.00
2022-07-28T01:58:28.204Z,100464.00
2022-07-28T02:00:57.604Z,100468.00
2022-07-28T02:03:29.279Z,100465.00
2022-07-28T02:05:59.639Z,100457.00
2022-07-28T02:08:27.164Z,100455.00
2022-07-28T02:11:15.936Z,100454.00
2022-07-28T02:13:44.609Z,100448.00
2022-07-28T02:16:15.696Z,100451.00
2022-07-28T02:18:45.787Z,100452.00
2022-07-28T02:21:14.883Z,100457.00
2022-07-28T02:23:46.188Z,100459.00
2022-07-28T02:26:16.368Z,100459.00
2022-07-28T02:28:52.523Z,100462.00
2022-07-28T02:31:26.611Z,100465.00
2022-07-28T02:34:02.048Z,100452.00
2022-07-28T02:36:37.833Z,100437.00
2022-07-28T02:39:23.822Z,100459.00
2022-07-28T02:42:04.288Z,100456.00
2022-07-28T02:44:41.382Z,100456.00
2022-07-28T02:47:15.230Z,100459.00
2022-07-28T02:49:44.237Z,100466.00
2022-07-28T02:52:13.901Z,100472.00
2022-07-28T02:54:42.594Z,100477.00
2022-07-28T02:57:13.008Z,100466.00
2022-07-28T02:59:42.029Z,100470.00
2022-07-28T03:02:10.359Z,100476.00
2022-07-28T03:04:58.778Z,100471.00
2022-07-28T03:07:31.574Z,100466.00
2022-07-28T03:09:59.828Z,100470.00
2022-07-28T03:12:27.615Z,100464.00
2022-07-28T03:14:55.461Z,100468.00
2022-07-28T03:17:22.853Z,100464.00
2022-07-28T03:19:50.121Z,100448.00
2022-07-28T03:22:17.789Z,100452.00
2022-07-28T03:24:53.981Z,100441.00
2022-07-28T03:27:33.157Z,100459.00
2022-07-28T03:30:06.274Z,100461.00
2022-07-28T03:32:35.798Z,100464.00
2022-07-28T03:35:03.196Z,100454.00
2022-07-28T03:38:05.539Z,100471.00
2022-07-28T03:40:34.342Z,100472.00
2022-07-28T03:43:08.255Z,100463.00
2022-07-28T03:45:36.022Z,100476.00
2022-07-28T03:48:04.004Z,100478.00
2022-07-28T03:50:33.454Z,100472.00
2022-07-28T03:53:03.128Z,100479.00
2022-07-28T03:55:30.354Z,100473.00
2022-07-28T03:57:57.766Z,100473.00
2022-07-28T04:00:25.961Z,100476.00
2022-07-28T04:02:54.595Z,100471.00
2022-07-28T04:05:21.600Z,100476.00
2022-07-28T04:07:48.735Z,100476.00
2022-07-28T04:10:17.521Z,100479.00
2022-07-28T04:12:55.406Z,100481.00
2022-07-28T04:15:28.162Z,100485.00
2022-07-28T04:17:56.804Z,100492.00
2022-07-28T04:20:26.353Z,100486.00
2022-07-28T04:22:55.124Z,100492.00
2022-07-28T04:25:25.981Z,100482.00
2022-07-28T04:27:55.013Z,100493.00
2022-07-28T04:30:24.919Z,100494.00
2022-07-28T04:32:54.745Z,100490.00
2022-07-28T04:35:24.279Z,100494.00
2022-07-28T04:37:51.829Z,100492.00
2022-07-28T04:40:18.852Z,100481.00
2022-07-28T04:42:45.859Z,100481.00
2022-07-28T04:45:12.951Z,100496.00
2022-07-28T04:47:40.579Z,100501.00
2022-07-28T04:50:10.733Z,100500.00
2022-07-28T04:52:38.532Z,100509.00
2022-07-28T04:55:07.139Z,100508.00
2022-07-28T04:57:35.092Z,100510.00
2022-07-28T05:00:13.232Z,100520.00
2022-07-28T05:02:43.051Z,100527.00
2022-07-28T05:05:11.965Z,100517.00
2022-07-28T05:07:40.174Z,100524.00
2022-07-28T05:10:10.756Z,100509.00
2022-07-28T05:12:38.572Z,100532.00
2022-07-28T05:15:07.594Z,100516.00
2022-07-28T05:17:37.043Z,100541.00
2022-07-28T05:20:06.608Z,100524.00
2022-07-28T05:22:45.135Z,100534.00
2022-07-28T05:25:22.741Z,100526.00
2022-07-28T05:27:51.291Z,100538.00
2022-07-28T05:30:19.441Z,100537.00
2022-07-28T05:32:46.809Z,100534.00
2022-07-28T05:35:14.245Z,100543.00
2022-07-28T05:37:41.640Z,100541.00
2022-07-28T05:40:14.126Z,100543.00
2022-07-28T05:42:43.282Z,100542.00
2022-07-28T05:45:16.234Z,100547.00
2022-07-28T05:47:53.045Z,100549.00
2022-07-28T05:50:23.229Z,100562.00
2022-07-28T05:52:51.423Z,100555.00
2022-07-28T05:55:19.468Z,100559.00
2022-07-28T05:57:46.908Z,100569.00
2022-07-28T06:00:17.797Z,100565.00
2022-07-28T06:02:47.514Z,100587.00
2022-07-28T06:05:17.281Z,100592.00
2022-07-28T06:07:46.736Z,100593.00
2022-07-28T06:10:18.080Z,100604.00
2022-07-28T06:12:47.947Z,100602.00
2022-07-28T06:15:25.013Z,100606.00
2022-07-28T06:17:55.187Z,100607.00
2022-07-28T06:20:24.245Z,100591.00
2022-07-28T06:22:54.049Z,100617.00
2022-07-28T06:25:28.406Z,100626.00
2022-07-28T06:28:02.917Z,100622.00
2022-07-28T06:30:31.497Z,100610.00
2022-07-28T06:32:59.084Z,100616.00
2022-07-28T06:35:26.349Z,100617.00
2022-07-28T06:37:53.861Z,100614.00
2022-07-28T06:40:22.307Z,100624.00
2022-07-28T06:42:50.061Z,100629.00
2022-07-28T06:45:19.946Z,100630.00
2022-07-28T06:47:53.151Z,100634.00
2022-07-28T06:50:26.362Z,100634.00
2022-07-28T06:52:55.744Z,100627.00
2022-07-28T06:55:22.906Z,100633.00
2022-07-28T06:57:50.367Z,100633.00
2022-07-28T07:00:17.729Z,100640.00
2022-07-28T07:02:44.999Z,100647.00
2022-07-28T07:05:17.814Z,100648.00
2022-07-28T07:07:45.105Z,100639.00
2022-07-28T07:10:12.666Z,100632.00
2022-07-28T07:12:39.806Z,100634.00
2022-07-28T07:15:08.497Z,100646.00
2022-07-28T07:17:37.643Z,100648.00
2022-07-28T07:20:07.073Z,100643.00
2022-07-28T07:22:34.554Z,100640.00
2022-07-28T07:25:15.156Z,100655.00
2022-07-28T07:27:42.594Z,100635.00
2022-07-28T07:30:11.279Z,100644.00
2022-07-28T07:32:39.107Z,100638.00
2022-07-28T07:35:07.769Z,100664.00
2022-07-28T07:37:35.259Z,100648.00
2022-07-28T07:40:05.276Z,100639.00
2022-07-28T07:42:32.471Z,100644.00
2022-07-28T07:45:00.322Z,100660.00
2022-07-28T07:47:27.746Z,100665.00
2022-07-28T07:49:54.793Z,100657.00
2022-07-28T07:52:21.873Z,100652.00
2022-07-28T07:54:48.869Z,100663.00
2022-07-28T07:57:15.802Z,100678.00
2022-07-28T07:59:42.895Z,100677.00
2022-07-28T08:02:10.017Z,100666.00
2022-07-28T08:04:38.505Z,100664.00
2022-07-28T08:07:06.559Z,100682.00
2022-07-28T08:09:34.752Z,100689.00
2022-07-28T08:12:02.089Z,100697.00
2022-07-28T08:14:29.512Z,100679.00
2022-07-28T08:16:58.528Z,100703.00
2022-07-28T08:19:26.699Z,100676.00
2022-07-28T08:21:55.461Z,100687.00
2022-07-28T08:24:33.253Z,100681.00
2022-07-28T08:27:04.822Z,100691.00
2022-07-28T08:29:32.302Z,100676.00
2022-07-28T08:32:02.974Z,100686.00
2022-07-28T08:34:33.747Z,100685.00
2022-07-28T08:37:05.781Z,100670.00
2022-07-28T08:39:34.792Z,100676.00
2022-07-28T08:42:08.580Z,100684.00
2022-07-28T08:44:54.911Z,100681.00
2022-07-28T08:47:23.052Z,100689.00
2022-07-28T08:49:51.882Z,100702.00
2022-07-28T08:52:22.223Z,100684.00
2022-07-28T08:54:51.049Z,100687.00
2022-07-28T08:57:28.476Z,100698.00
2022-07-28T08:59:56.728Z,100688.00
2022-07-28T09:02:27.890Z,100677.00
2022-07-28T09:05:00.226Z,100707.00
2022-07-28T09:07:27.496Z,100712.00
2022-07-28T09:10:02.218Z,100694.00
2022-07-28T09:12:29.950Z,100697.00
2022-07-28T09:14:56.988Z,100714.00
2022-07-28T09:17:24.284Z,100709.00
2022-07-28T09:19:51.409Z,100720.00
2022-07-28T09:22:18.375Z,100706.00
2022-07-28T09:24:45.880Z,100719.00
2022-07-28T09:27:15.671Z,100725.00
2022-07-28T09:29:57.683Z,100712.00
2022-07-28T09:32:27.471Z,100708.00
2022-07-28T09:34:54.779Z,100719.00
2022-07-28T09:37:28.077Z,100732.00
2022-07-28T09:40:00.272Z,100713.00
2022-07-28T09:42:50.295Z,100726.00
2022-07-28T09:45:25.237Z,100727.00
2022-07-28T09:48:25.164Z,100734.00
2022-07-28T09:50:52.354Z,100733.00
2022-07-28T09:53:28.408Z,100729.00
2022-07-28T09:55:59.504Z,100737.00
2022-07-28T09:58:31.748Z,100740.00
2022-07-28T10:01:08.417Z,100739.00
2022-07-28T10:03:41.249Z,100737.00
2022-07-28T10:06:13.580Z,100738.00
2022-07-28T10:08:52.678Z,100729.00
2022-07-28T10:11:27.346Z,100729.00
2022-07-28T10:13:59.546Z,100730.00
2022-07-28T10:16:36.950Z,100732.00
2022-07-28T10:19:06.129Z,100725.00
2022-07-28T10:21:44.381Z,100735.00
2022-07-28T10:24:22.080Z,100736.00
2022-07-28T10:26:52.541Z,100730.00
2022-07-28T10:29:22.582Z,100722.00
2022-07-28T10:31:58.786Z,100730.00
2022-07-28T10:34:38.257Z,100730.00
2022-07-28T10:37:10.577Z,100723.00
2022-07-28T10:39:49.664Z,100717.00
2022-07-28T10:42:17.379Z,100713.00
2022-07-28T10:44:46.039Z,100712.00
2022-07-28T10:47:18.469Z,100720.00
2022-07-28T10:49:50.218Z,100701.00
2022-07-28T10:52:45.689Z,100718.00
2022-07-28T10:55:34.308Z,100736.00
2022-07-28T10:58:17.426Z,100734.00
2022-07-28T11:01:05.241Z,100730.00
2022-07-28T11:03:47.694Z,100733.00
2022-07-28T11:06:39.823Z,100733.00
2022-07-28T11:09:15.834Z,100727.00
2022-07-28T11:11:50.332Z,100738.00
2022-07-28T11:14:24.687Z,100737.00
2022-07-28T11:17:10.435Z,100731.00
2022-07-28T11:20:01.159Z,100726.00
2022-07-28T11:22:35.445Z,100740.00
2022-07-28T11:25:20.347Z,100731.00
2022-07-28T11:27:52.109Z,100741.00
2022-07-28T11:30:19.666Z,100733.00
2022-07-28T11:32:53.535Z,100707.00
2022-07-28T11:35:26.551Z,100711.00
2022-07-28T11:38:02.630Z,100711.00
2022-07-28T11:40:33.702Z,100716.00
2022-07-28T11:43:36.578Z,100733.00
2022-07-28T11:46:07.031Z,100724.00
2022-07-28T11:48:40.207Z,100734.00
2022-07-28T11:51:07.272Z,100748.00
2022-07-28T11:53:53.500Z,100754.00
2022-07-28T11:56:26.904Z,100750.00
2022-07-28T11:59:03.407Z,100760.00
2022-07-28T12:01:37.069Z,100762.00
2022-07-28T12:04:16.153Z,100754.00
2022-07-28T12:06:49.554Z,100760.00
2022-07-28T12:09:25.093Z,100741.00
2022-07-28T12:11:55.774Z,100726.00
2022-07-28T12:14:22.969Z,100725.00
2022-07-28T12:16:52.231Z,100746.00
2022-07-28T12:19:21.069Z,100740.00
2022-07-28T12:21:53.312Z,100745.00
2022-07-28T12:24:44.936Z,100755.00
2022-07-28T12:27:15.225Z,100754.00
2022-07-28T12:29:42.719Z,100745.00
2022-07-28T12:32:10.574Z,100743.00
2022-07-28T12:34:40.481Z,100750.00
2022-07-28T12:37:12.595Z,100743.00
2022-07-28T12:39:42.458Z,100737.00
2022-07-28T12:42:13.316Z,100732.00
2022-07-28T12:44:48.102Z,100739.00
2022-07-28T12:47:26.035Z,100742.00
2022-07-28T12:50:10.038Z,100751.00
2022-07-28T12:52:37.285Z,100747.00
2022-07-28T12:55:24.897Z,100758.00
2022-07-28T12:57:52.909Z,100753.00
2022-07-28T13:00:27.621Z,100759.00
2022-07-28T13:02:59.986Z,100735.00
2022-07-28T13:05:57.053Z,100754.00
2022-07-28T13:08:27.522Z,100746.00
2022-07-28T13:10:58.923Z,100756.00
2022-07-28T13:13:27.154Z,100758.00
2022-07-28T13:16:19.316Z,100767.00
2022-07-28T13:18:58.110Z,100760.00
2022-07-28T13:21:59.608Z,100747.00
2022-07-28T13:24:30.626Z,100766.00
2022-07-28T13:26:59.403Z,100760.00
2022-07-28T13:29:26.452Z,100762.00
2022-07-28T13:31:54.833Z,100772.00
2022-07-28T13:34:22.492Z,100771.00
2022-07-28T13:36:52.411Z,100767.00
2022-07-28T13:39:19.455Z,100756.00
2022-07-28T13:41:57.518Z,100749.00
2022-07-28T13:44:29.965Z,100767.00
2022-07-28T13:46:59.298Z,100770.00
2022-07-28T13:49:33.933Z,100773.00
2022-07-28T13:52:02.336Z,100776.00
2022-07-28T13:54:31.538Z,100773.00
2022-07-28T13:57:00.596Z,100778.00
2022-07-28T13:59:27.581Z,100766.00
2022-07-28T14:01:57.812Z,100782.00
2022-07-28T14:04:25.317Z,100780.00
2022-07-28T14:06:54.047Z,100787.00
2022-07-28T14:09:21.565Z,100783.00
2022-07-28T14:11:50.130Z,100781.00
2022-07-28T14:14:25.313Z,100787.00
2022-07-28T14:16:55.163Z,100769.00
2022-07-28T14:19:38.272Z,100778.00
2022-07-28T14:22:13.340Z,100771.00
2022-07-28T14:24:44.243Z,100775.00
2022-07-28T14:27:11.504Z,100781.00
2022-07-28T14:29:46.231Z,100776.00
2022-07-28T14:32:13.374Z,100784.00
2022-07-28T14:34:40.334Z,100770.00
2022-07-28T14:37:08.863Z,100784.00
2022-07-28T14:39:38.245Z,100772.00
2022-07-28T14:42:06.834Z,100774.00
2022-07-28T14:44:34.337Z,100767.00
2022-07-28T14:47:01.572Z,100768.00
2022-07-28T14:49:28.968Z,100764.00
2022-07-28T14:51:59.453Z,100771.00
2022-07-28T14:54:30.116Z,100758.00
2022-07-28T14:56:57.216Z,100765.00
2022-07-28T14:59:24.589Z,100755.00
2022-07-28T15:01:52.306Z,100772.00
2022-07-28T15:04:19.396Z,100772.00
2022-07-28T15:06:47.470Z,100774.00
2022-07-28T15:09:15.244Z,100777.00
2022-07-28T15:11:42.351Z,100777.00
2022-07-28T15:14:09.435Z,100796.00
2022-07-28T15:16:36.471Z,100801.00
2022-07-28T15:19:03.627Z,100808.00
2022-07-28T15:21:35.838Z,100810.00
2022-07-28T15:24:04.226Z,100815.00
2022-07-28T15:26:31.222Z,100825.00
2022-07-28T15:28:58.292Z,100823.00
2022-07-28T15:31:26.045Z,100815.00
2022-07-28T15:33:57.705Z,100820.00
2022-07-28T15:36:26.048Z,100826.00
2022-07-28T15:50:03.856Z,100828.00
2022-07-28T15:52:30.812Z,100833.00
2022-07-28T15:54:57.751Z,100838.00
2022-07-28T15:57:25.060Z,100828.00
2022-07-28T16:00:09.082Z,100837.00
2022-07-28T16:02:36.193Z,100839.00
2022-07-28T16:05:03.547Z,100848.00
2022-07-28T16:07:31.192Z,100836.00
2022-07-28T16:09:58.248Z,100848.00
2022-07-28T16:12:26.124Z,100844.00
2022-07-28T16:14:56.691Z,100850.00
2022-07-28T16:17:24.642Z,100853.00
2022-07-28T16:19:53.772Z,100831.00
2022-07-28T16:22:21.681Z,100848.00
2022-07-28T16:24:49.371Z,100844.00
2022-07-28T16:27:16.870Z,100854.00
2022-07-28T16:29:45.136Z,100855.00
2022-07-28T16:32:12.840Z,100855.00
2022-07-28T16:34:39.961Z,100852.00
2022-07-28T16:37:07.240Z,100860.00
2022-07-28T16:39:35.143Z,100849.00
2022-07-28T16:42:03.003Z,100857.00
2022-07-28T16:44:30.720Z,100849.00
2022-07-28T16:46:58.366Z,100856.00
2022-07-28T16:49:25.664Z,100859.00
2022-07-28T16:51:52.908Z,100859.00
2022-07-28T16:54:22.891Z,100865.00
2022-07-28T16:56:50.405Z,100852.00
2022-07-28T16:59:17.543Z,100855.00
2022-07-28T17:01:46.539Z,100861.00
2022-07-28T17:04:18.090Z,100863.00
2022-07-28T17:06:46.502Z,100855.00
2022-07-28T17:09:15.835Z,100852.00
2022-07-28T17:11:43.357Z,100856.00
2022-07-28T17:14:11.910Z,100867.00
2022-07-28T17:16:39.087Z,100834.00
2022-07-28T17:19:06.196Z,100873.00
2022-07-28T17:21:35.282Z,100877.00
2022-07-28T17:24:02.620Z,100874.00
2022-07-28T17:29:18.896Z,100878.00
2022-07-28T17:31:46.115Z,100887.00
2022-07-28T17:34:13.912Z,100882.00
2022-07-28T17:36:41.953Z,100880.00
2022-07-28T17:39:09.345Z,100884.00
2022-07-28T17:41:36.357Z,100893.00
2022-07-28T17:44:03.526Z,100890.00
2022-07-28T17:46:30.711Z,100893.00
2022-07-28T17:48:59.071Z,100888.00
2022-07-28T17:51:27.651Z,100900.00
2022-07-28T17:53:55.606Z,100905.00
2022-07-28T17:56:22.814Z,100882.00
2022-07-28T17:58:49.996Z,100894.00
2022-07-28T18:01:17.453Z,100900.00
2022-07-28T18:03:56.661Z,100902.00
2022-07-28T18:06:34.945Z,100900.00
2022-07-28T18:09:07.956Z,100901.00
2022-07-28T18:11:57.681Z,100906.00
2022-07-28T18:14:30.698Z,100885.00
2022-07-28T18:16:59.075Z,100910.00
2022-07-28T18:19:27.878Z,100908.00
2022-07-28T18:21:56.256Z,100920.00
2022-07-28T18:24:23.818Z,100915.00
2022-07-28T18:26:52.582Z,100927.00
2022-07-28T18:29:21.499Z,100922.00
2022-07-28T18:31:51.501Z,100922.00
2022-07-28T18:34:19.456Z,100917.00
2022-07-28T18:36:50.837Z,100903.00
2022-07-28T18:39:17.964Z,100919.00
2022-07-28T18:41:46.619Z,100920.00
2022-07-28T18:44:19.210Z,100928.00
2022-07-28T18:46:47.062Z,100927.00
2022-07-28T18:49:15.433Z,100926.00
2022-07-28T18:51:44.873Z,100927.00
2022-07-28T18:54:18.756Z,100931.00
2022-07-28T18:56:49.040Z,100929.00
2022-07-28T18:59:16.330Z,100928.00
2022-07-28T19:01:43.476Z,100933.00
2022-07-28T19:04:10.606Z,100931.00
2022-07-28T19:06:37.599Z,100938.00
2022-07-28T19:09:05.319Z,100912.00
2022-07-28T19:11:33.489Z,100936.00
2022-07-28T19:14:00.731Z,100938.00
2022-07-28T19:16:28.025Z,100940.00
2022-07-28T19:18:55.323Z,100934.00
2022-07-28T19:21:23.008Z,100940.00
2022-07-28T19:23:51.053Z,100946.00
2022-07-28T19:26:19.114Z,100948.00
2022-07-28T19:28:47.135Z,100946.00
2022-07-28T19:31:14.271Z,100956.00
2022-07-28T19:33:43.943Z,100961.00
2022-07-28T19:36:13.818Z,100952.00
2022-07-28T19:38:44.225Z,100953.00
2022-07-28T19:41:13.140Z,100946.00
2022-07-28T19:43:40.553Z,100946.00
2022-07-28T19:46:07.830Z,100941.00
2022-07-28T19:48:35.024Z,100937.00
2022-07-28T19:51:02.797Z,100952.00
2022-07-28T19:53:32.083Z,100962.00
2022-07-28T19:56:01.602Z,100943.00
2022-07-28T19:58:28.944Z,100957.00
2022-07-28T20:00:56.353Z,100961.00
2022-07-28T20:03:59.896Z,100961.00
2022-07-28T20:06:11.918Z,100949.00
2022-07-28T20:08:39.418Z,100961.00
2022-07-28T20:11:06.968Z,100963.00
2022-07-28T20:13:35.089Z,100972.00
2022-07-28T20:16:02.089Z,100964.00
2022-07-28T20:18:29.290Z,100971.00
2022-07-28T20:20:56.360Z,100967.00
2022-07-28T20:23:23.400Z,100984.00
2022-07-28T20:25:52.998Z,100975.00
2022-07-28T20:28:23.917Z,100973.00
2022-07-28T20:30:51.298Z,100980.00
2022-07-28T20:33:18.496Z,100964.00
2022-07-28T20:35:45.494Z,100968.00
2022-07-28T20:38:12.681Z,100951.00
2022-07-28T20:40:40.741Z,100964.00
2022-07-28T20:43:09.222Z,100962.00
2022-07-28T20:45:37.545Z,100961.00
2022-07-28T20:48:07.241Z,100962.00
2022-07-28T20:50:34.327Z,100959.00
2022-07-28T20:53:10.284Z,100975.00
2022-07-28T20:55:37.537Z,100964.00
2022-07-28T20:58:05.925Z,100967.00
2022-07-28T21:00:33.417Z,100959.00
2022-07-28T21:03:00.489Z,100967.00
2022-07-28T21:05:35.432Z,100970.00
2022-07-28T21:08:06.464Z,100975.00
2022-07-28T21:10:37.180Z,100964.00
2022-07-28T21:13:04.627Z,100982.00
2022-07-28T21:15:31.854Z,100971.00
2022-07-28T21:18:08.433Z,100981.00
2022-07-28T21:20:38.648Z,100963.00
2022-07-28T21:23:05.894Z,100974.00
2022-07-28T21:25:32.991Z,100982.00
2022-07-28T21:28:18.622Z,100985.00
2022-07-28T21:30:46.276Z,100990.00
2022-07-28T21:33:13.904Z,100997.00
2022-07-28T21:35:50.130Z,100991.00
2022-07-28T21:38:17.214Z,100994.00
2022-07-28T21:40:44.138Z,101002.00
2022-07-28T21:43:11.192Z,101000.00
2022-07-28T21:45:38.181Z,101004.00
2022-07-28T21:48:05.573Z,101003.00
2022-07-28T21:50:32.528Z,100988.00
2022-07-28T21:53:01.958Z,101017.00
2022-07-28T21:55:29.026Z,101019.00
2022-07-28T21:57:56.010Z,101013.00
2022-07-28T22:00:23.009Z,101012.00
2022-07-28T22:02:50.057Z,101016.00
2022-07-28T22:05:18.387Z,101012.00
2022-07-28T22:07:48.248Z,101016.00
2022-07-28T22:10:15.910Z,101022.00
2022-07-28T22:12:43.230Z,101012.00
2022-07-28T22:15:10.896Z,101027.00
2022-07-28T22:17:38.166Z,101026.00
2022-07-28T22:20:07.763Z,101035.00
2022-07-28T22:22:34.829Z,101020.00
2022-07-28T22:25:02.392Z,101034.00
2022-07-28T22:27:29.559Z,101026.00
2022-07-28T22:29:56.489Z,101033.00
2022-07-28T22:32:26.676Z,101030.00
2022-07-28T22:34:56.151Z,101031.00
2022-07-28T22:37:23.110Z,101033.00
2022-07-28T22:39:50.192Z,101030.00
2022-07-28T22:42:17.160Z,101034.00
2022-07-28T22:44:44.178Z,101030.00
2022-07-28T22:47:11.120Z,101040.00
2022-07-28T22:49:38.141Z,101042.00
2022-07-28T22:52:05.570Z,101039.00
2022-07-28T22:54:32.541Z,101043.00
2022-07-28T22:56:59.589Z,101039.00
2022-07-28T22:59:27.184Z,101050.00
2022-07-28T23:01:57.142Z,101056.00
2022-07-28T23:04:25.379Z,101053.00
2022-07-28T23:06:54.176Z,101055.00
2022-07-28T23:09:21.146Z,101049.00
2022-07-28T23:11:54.528Z,101049.00
2022-07-28T23:14:23.164Z,101037.00
2022-07-28T23:16:50.558Z,101055.00
2022-07-28T23:19:17.914Z,101055.00
2022-07-28T23:21:45.131Z,101050.00
2022-07-28T23:24:12.344Z,101045.00
2022-07-28T23:26:39.602Z,101044.00
2022-07-28T23:29:06.596Z,101047.00
2022-07-28T23:31:33.705Z,101056.00
2022-07-28T23:34:00.810Z,101049.00
2022-07-28T23:36:28.218Z,101052.00
2022-07-28T23:38:57.731Z,101048.00
2022-07-28T23:41:26.889Z,101046.00
2022-07-28T23:43:54.664Z,101045.00
2022-07-28T23:46:22.365Z,101042.00
2022-07-28T23:48:49.933Z,101045.00
2022-07-28T23:51:16.998Z,101045.00
2022-07-28T23:53:44.266Z,101044.00
2022-07-28T23:56:13.585Z,101042.00
2022-07-28T23:58:41.138Z,101044.00
